createdAt,value
2022-12-19T00:01:32.476Z,57.42
2022-12-19T00:03:04.725Z,57.12
2022-12-19T00:04:36.543Z,57.35
2022-12-19T00:06:08.278Z,57.80
2022-12-19T00:07:39.859Z,57.58
2022-12-19T00:09:11.741Z,57.67
2022-12-19T00:10:43.596Z,57.76
2022-12-19T00:12:19.199Z,57.52
2022-12-19T00:13:51.157Z,57.22
2022-12-19T00:15:22.840Z,57.35
2022-12-19T00:16:54.463Z,57.51
2022-12-19T00:18:26.015Z,57.30
2022-12-19T00:19:57.612Z,57.14
2022-12-19T00:21:30.446Z,57.30
2022-12-19T00:23:02.083Z,57.26
2022-12-19T00:24:33.815Z,57.27
2022-12-19T00:26:18.822Z,57.29
2022-12-19T00:27:50.443Z,57.11
2022-12-19T00:29:22.049Z,57.23
2022-12-19T00:30:54.510Z,57.01
2022-12-19T00:32:28.042Z,56.89
2022-12-19T00:34:00.135Z,57.00
2022-12-19T00:35:31.670Z,57.23
2022-12-19T00:37:03.409Z,57.02
2022-12-19T00:38:35.058Z,57.19
2022-12-19T00:40:07.556Z,56.87
2022-12-19T00:41:41.545Z,57.06
2022-12-19T00:43:14.015Z,56.82
2022-12-19T00:44:45.755Z,57.18
2022-12-19T00:46:17.435Z,57.08
2022-12-19T00:47:49.066Z,57.01
2022-12-19T00:49:20.977Z,57.27
2022-12-19T00:50:58.714Z,57.02
2022-12-19T00:52:30.410Z,57.57
2022-12-19T00:54:03.956Z,57.52
2022-12-19T00:55:38.250Z,57.30
2022-12-19T00:57:09.774Z,57.39
2022-12-19T00:58:46.654Z,57.59
2022-12-19T01:00:18.915Z,57.62
2022-12-19T01:01:50.553Z,57.51
2022-12-19T01:03:22.391Z,57.55
2022-12-19T01:04:53.949Z,57.93
2022-12-19T01:06:25.776Z,57.48
2022-12-19T01:07:57.511Z,57.56
2022-12-19T01:09:29.031Z,57.74
2022-12-19T01:11:00.573Z,57.42
2022-12-19T01:12:47.437Z,57.46
2022-12-19T01:14:22.784Z,57.47
2022-12-19T01:15:55.833Z,57.72
2022-12-19T01:17:27.394Z,57.29
2022-12-19T01:18:59.337Z,56.77
2022-12-19T01:20:33.329Z,56.51
2022-12-19T01:22:04.951Z,57.04
2022-12-19T01:23:36.980Z,56.77
2022-12-19T01:25:08.761Z,56.52
2022-12-19T01:26:40.366Z,56.95
2022-12-19T01:28:12.376Z,56.87
2022-12-19T01:29:51.818Z,56.92
2022-12-19T01:31:24.559Z,56.82
2022-12-19T01:32:56.434Z,56.90
2022-12-19T01:34:28.068Z,56.81
2022-12-19T01:36:01.889Z,56.59
2022-12-19T01:37:33.475Z,56.87
2022-12-19T01:39:05.056Z,56.58
2022-12-19T01:40:36.599Z,56.84
2022-12-19T01:42:18.472Z,56.92
2022-12-19T01:43:58.884Z,56.88
2022-12-19T01:45:35.403Z,57.17
2022-12-19T01:47:09.063Z,57.26
2022-12-19T01:48:42.245Z,57.33
2022-12-19T01:50:14.612Z,57.85
2022-12-19T01:51:47.155Z,57.55
2022-12-19T01:53:18.703Z,57.98
2022-12-19T01:54:50.271Z,57.54
2022-12-19T01:56:26.359Z,57.57
2022-12-19T01:57:57.916Z,57.54
2022-12-19T01:59:33.542Z,57.81
2022-12-19T02:01:05.236Z,57.68
2022-12-19T02:02:44.221Z,57.78
2022-12-19T02:04:15.863Z,57.85
2022-12-19T02:05:47.488Z,58.05
2022-12-19T02:07:19.279Z,57.89
2022-12-19T02:08:50.912Z,57.87
2022-12-19T02:10:22.546Z,57.35
2022-12-19T02:11:54.260Z,57.79
2022-12-19T02:13:25.761Z,57.32
2022-12-19T02:15:01.021Z,57.66
2022-12-19T02:16:37.582Z,58.10
2022-12-19T02:18:21.556Z,57.79
2022-12-19T02:19:53.056Z,57.78
2022-12-19T02:21:39.591Z,57.94
2022-12-19T02:23:23.844Z,57.61
2022-12-19T02:24:58.227Z,57.79
2022-12-19T02:26:44.304Z,57.98
2022-12-19T02:28:30.004Z,57.54
2022-12-19T02:30:08.214Z,57.79
2022-12-19T02:31:50.160Z,57.71
2022-12-19T02:33:41.153Z,57.84
2022-12-19T02:35:31.136Z,57.29
2022-12-19T02:37:04.181Z,57.71
2022-12-19T02:38:53.768Z,57.52
2022-12-19T02:40:28.708Z,57.61
2022-12-19T02:42:00.380Z,57.77
2022-12-19T02:43:32.607Z,57.46
2022-12-19T02:45:04.691Z,57.81
2022-12-19T02:46:36.345Z,57.55
2022-12-19T02:48:09.194Z,58.06
2022-12-19T02:49:41.032Z,57.92
2022-12-19T02:51:12.662Z,58.02
2022-12-19T02:52:45.160Z,57.16
2022-12-19T02:54:16.854Z,57.20
2022-12-19T02:55:51.633Z,57.19
2022-12-19T02:57:24.452Z,57.42
2022-12-19T02:59:02.258Z,57.80
2022-12-19T03:00:34.299Z,57.51
2022-12-19T03:02:21.773Z,57.51
2022-12-19T03:04:12.302Z,57.29
2022-12-19T03:05:50.919Z,57.88
2022-12-19T03:07:51.541Z,58.18
2022-12-19T03:09:49.083Z,57.81
2022-12-19T03:11:20.680Z,57.74
2022-12-19T03:12:56.860Z,58.35
2022-12-19T03:14:28.344Z,58.35
2022-12-19T03:16:00.007Z,58.13
2022-12-19T03:17:34.646Z,58.44
2022-12-19T03:19:08.839Z,58.26
2022-12-19T03:20:43.215Z,58.02
2022-12-19T03:22:15.046Z,58.16
2022-12-19T03:23:46.581Z,58.06
2022-12-19T03:25:18.647Z,58.35
2022-12-19T03:26:57.673Z,58.55
2022-12-19T03:28:38.179Z,58.14
2022-12-19T03:30:10.771Z,58.34
2022-12-19T03:31:42.303Z,58.16
2022-12-19T03:33:14.297Z,58.03
2022-12-19T03:35:04.860Z,58.14
2022-12-19T03:36:37.551Z,58.35
2022-12-19T03:38:09.415Z,58.35
2022-12-19T03:39:41.040Z,57.98
2022-12-19T03:41:13.709Z,58.49
2022-12-19T03:43:03.746Z,58.56
2022-12-19T03:44:35.942Z,58.02
2022-12-19T03:46:19.744Z,58.18
2022-12-19T03:47:51.855Z,58.56
2022-12-19T03:49:23.577Z,58.54
2022-12-19T03:51:03.824Z,58.43
2022-12-19T03:52:35.452Z,58.86
2022-12-19T03:54:11.632Z,58.83
2022-12-19T03:55:47.964Z,59.14
2022-12-19T03:57:20.575Z,58.71
2022-12-19T03:59:00.786Z,59.01
2022-12-19T04:00:33.539Z,58.71
2022-12-19T04:02:05.307Z,58.96
2022-12-19T04:03:37.502Z,58.65
2022-12-19T04:05:09.401Z,59.01
2022-12-19T04:06:40.959Z,58.63
2022-12-19T04:08:12.640Z,59.08
2022-12-19T04:09:44.260Z,58.84
2022-12-19T04:11:16.782Z,58.93
2022-12-19T04:12:53.386Z,59.18
2022-12-19T04:14:31.589Z,59.32
2022-12-19T04:16:06.069Z,58.67
2022-12-19T04:17:39.649Z,58.99
2022-12-19T04:19:17.149Z,58.89
2022-12-19T04:21:06.016Z,58.92
2022-12-19T04:22:56.328Z,59.19
2022-12-19T04:24:29.382Z,58.65
2022-12-19T04:26:02.443Z,59.20
2022-12-19T04:27:34.535Z,58.78
2022-12-19T04:29:06.433Z,59.23
2022-12-19T04:30:38.097Z,58.96
2022-12-19T04:32:09.671Z,58.88
2022-12-19T04:33:41.314Z,59.65
2022-12-19T04:35:13.026Z,59.35
2022-12-19T04:36:44.676Z,59.26
2022-12-19T04:38:16.213Z,59.56
2022-12-19T04:39:47.817Z,58.81
2022-12-19T04:41:19.501Z,59.22
2022-12-19T04:42:51.150Z,59.23
2022-12-19T04:44:22.856Z,59.33
2022-12-19T04:45:57.491Z,58.72
2022-12-19T04:47:29.494Z,59.30
2022-12-19T04:49:01.908Z,59.03
2022-12-19T04:50:34.068Z,59.02
2022-12-19T04:52:05.792Z,59.12
2022-12-19T04:53:39.529Z,59.66
2022-12-19T04:55:11.068Z,59.09
2022-12-19T04:56:43.175Z,59.53
2022-12-19T04:58:20.261Z,59.42
2022-12-19T04:59:53.379Z,58.79
2022-12-19T05:01:25.144Z,59.03
2022-12-19T05:02:57.422Z,58.45
2022-12-19T05:04:29.067Z,59.15
2022-12-19T05:06:04.135Z,58.54
2022-12-19T05:07:36.231Z,58.76
2022-12-19T05:09:07.890Z,59.41
2022-12-19T05:10:39.489Z,58.98
2022-12-19T05:12:11.789Z,58.75
2022-12-19T05:13:43.474Z,58.63
2022-12-19T05:15:15.069Z,58.13
2022-12-19T05:16:46.561Z,58.23
2022-12-19T05:18:18.221Z,58.30
2022-12-19T05:19:49.725Z,58.98
2022-12-19T05:21:21.890Z,58.36
2022-12-19T05:22:53.345Z,58.72
2022-12-19T05:24:24.968Z,58.54
2022-12-19T05:26:00.014Z,58.50
2022-12-19T05:27:31.599Z,58.53
2022-12-19T05:29:03.455Z,58.45
2022-12-19T05:30:34.940Z,58.52
2022-12-19T05:32:06.564Z,58.54
2022-12-19T05:33:38.434Z,58.47
2022-12-19T05:35:10.546Z,59.23
2022-12-19T05:36:42.169Z,58.69
2022-12-19T05:38:13.751Z,59.33
2022-12-19T05:39:45.442Z,58.77
2022-12-19T05:41:17.877Z,59.17
2022-12-19T05:42:49.457Z,59.46
2022-12-19T05:44:21.033Z,58.97
2022-12-19T05:45:52.548Z,59.05
2022-12-19T05:47:24.384Z,59.50
2022-12-19T05:48:55.980Z,59.43
2022-12-19T05:50:28.031Z,59.23
2022-12-19T05:51:59.701Z,59.55
2022-12-19T05:53:31.366Z,59.63
2022-12-19T05:55:02.998Z,59.28
2022-12-19T05:56:34.554Z,59.41
2022-12-19T05:58:06.080Z,59.87
2022-12-19T05:59:37.725Z,59.71
2022-12-19T06:01:10.321Z,59.34
2022-12-19T06:02:42.023Z,59.72
2022-12-19T06:04:13.716Z,59.65
2022-12-19T06:05:45.342Z,59.51
2022-12-19T06:07:20.926Z,59.70
2022-12-19T06:08:56.312Z,59.04
2022-12-19T06:10:27.944Z,59.28
2022-12-19T06:11:59.464Z,59.50
2022-12-19T06:13:31.237Z,59.19
2022-12-19T06:15:02.858Z,59.35
2022-12-19T06:16:34.449Z,59.25
2022-12-19T06:18:06.373Z,58.91
2022-12-19T06:19:38.052Z,58.51
2022-12-19T06:21:14.659Z,58.65
2022-12-19T06:22:46.117Z,58.41
2022-12-19T06:25:00.995Z,58.37
2022-12-19T06:29:09.117Z,58.82
2022-12-19T06:32:36.285Z,59.21
2022-12-19T06:34:55.237Z,59.07
2022-12-19T06:36:20.348Z,59.13
2022-12-19T06:37:54.354Z,59.49
2022-12-19T06:39:28.118Z,59.01
2022-12-19T06:41:18.131Z,59.31
2022-12-19T06:42:49.700Z,58.96
2022-12-19T06:44:21.174Z,59.44
2022-12-19T06:45:52.826Z,59.20
2022-12-19T06:47:24.741Z,59.60
2022-12-19T06:48:56.521Z,59.74
2022-12-19T06:50:28.105Z,59.69
2022-12-19T06:52:03.912Z,59.31
2022-12-19T06:53:38.028Z,59.02
2022-12-19T06:55:09.990Z,59.27
2022-12-19T06:56:41.891Z,59.59
2022-12-19T06:58:14.085Z,59.23
2022-12-19T06:59:45.835Z,59.25
2022-12-19T07:01:20.996Z,59.18
2022-12-19T07:03:15.655Z,59.12
2022-12-19T07:05:07.507Z,59.06
2022-12-19T07:06:39.235Z,59.34
2022-12-19T07:08:10.962Z,59.42
2022-12-19T07:09:42.676Z,58.59
2022-12-19T07:11:14.332Z,59.35
2022-12-19T07:12:48.618Z,58.58
2022-12-19T07:14:34.560Z,59.42
2022-12-19T07:16:12.298Z,59.63
2022-12-19T07:17:44.131Z,59.51
2022-12-19T07:19:15.795Z,59.40
2022-12-19T07:20:47.472Z,59.46
2022-12-19T07:22:30.862Z,59.46
2022-12-19T07:24:02.458Z,59.33
2022-12-19T07:25:34.199Z,59.38
2022-12-19T07:27:06.478Z,59.74
2022-12-19T07:28:38.239Z,59.69
2022-12-19T07:30:17.677Z,60.03
2022-12-19T07:31:49.448Z,59.85
2022-12-19T07:33:21.928Z,59.78
2022-12-19T07:34:53.832Z,60.13
2022-12-19T07:36:25.462Z,59.56
2022-12-19T07:38:04.365Z,59.70
2022-12-19T07:39:35.894Z,59.33
2022-12-19T07:41:07.469Z,59.05
2022-12-19T07:42:39.112Z,58.98
2022-12-19T07:44:13.395Z,59.70
2022-12-19T07:45:45.135Z,59.55
2022-12-19T07:47:19.733Z,59.20
2022-12-19T07:48:53.898Z,59.14
2022-12-19T07:50:25.609Z,59.59
2022-12-19T07:51:57.297Z,59.83
2022-12-19T07:53:28.929Z,59.45
2022-12-19T07:55:00.726Z,59.38
2022-12-19T07:56:32.340Z,59.80
2022-12-19T07:58:04.441Z,59.69
2022-12-19T07:59:39.162Z,59.54
2022-12-19T08:03:01.097Z,58.79
2022-12-19T08:04:32.735Z,59.19
2022-12-19T08:06:05.238Z,58.73
2022-12-19T08:07:36.755Z,58.79
2022-12-19T08:09:08.284Z,58.76
2022-12-19T08:10:41.600Z,58.65
2022-12-19T08:12:17.083Z,59.13
2022-12-19T08:13:51.523Z,58.86
2022-12-19T08:15:23.605Z,59.04
2022-12-19T08:18:50.222Z,58.72
2022-12-19T08:20:22.107Z,59.35
2022-12-19T08:21:54.290Z,59.50
2022-12-19T08:23:28.511Z,59.15
2022-12-19T08:25:06.127Z,59.40
2022-12-19T08:26:41.834Z,58.85
2022-12-19T08:28:16.137Z,58.86
2022-12-19T08:29:47.701Z,59.02
2022-12-19T08:31:19.487Z,58.94
2022-12-19T08:32:57.759Z,58.88
2022-12-19T08:34:32.323Z,59.35
2022-12-19T08:36:22.933Z,58.90
2022-12-19T08:38:01.974Z,59.13
2022-12-19T08:39:39.644Z,58.66
2022-12-19T08:41:14.205Z,58.70
2022-12-19T08:42:45.808Z,59.03
2022-12-19T08:44:19.317Z,58.88
2022-12-19T08:45:51.088Z,58.96
2022-12-19T08:47:25.844Z,58.54
2022-12-19T08:49:00.152Z,58.71
2022-12-19T08:50:31.944Z,59.04
2022-12-19T08:52:06.650Z,58.97
2022-12-19T08:53:41.547Z,59.21
2022-12-19T08:55:16.181Z,58.92
2022-12-19T08:56:53.766Z,59.21
2022-12-19T08:59:00.007Z,59.45
2022-12-19T09:01:05.761Z,59.32
2022-12-19T09:06:53.536Z,59.27
2022-12-19T09:11:12.962Z,59.08
2022-12-19T09:18:09.308Z,59.22
2022-12-19T09:20:36.148Z,59.32
2022-12-19T09:26:17.119Z,59.13
2022-12-19T09:28:28.029Z,59.34
2022-12-19T09:30:40.828Z,59.48
2022-12-19T09:36:20.758Z,59.33
2022-12-19T09:38:25.916Z,59.36
2022-12-19T09:40:05.463Z,59.38
2022-12-19T09:42:28.132Z,59.31
2022-12-19T09:44:18.351Z,59.71
2022-12-19T09:46:09.893Z,59.46
2022-12-19T09:47:45.527Z,59.35
2022-12-19T09:49:39.803Z,58.84
2022-12-19T09:51:32.561Z,59.03
2022-12-19T09:53:11.215Z,59.00
2022-12-19T09:54:53.193Z,59.31
2022-12-19T09:56:30.152Z,59.16
2022-12-19T09:58:23.603Z,59.06
2022-12-19T09:59:57.566Z,58.88
2022-12-19T10:01:38.920Z,59.37
2022-12-19T10:03:38.737Z,59.38
2022-12-19T10:05:51.740Z,59.90
2022-12-19T10:07:52.990Z,59.40
2022-12-19T10:10:01.032Z,59.91
2022-12-19T10:13:19.563Z,59.56
2022-12-19T10:15:14.407Z,59.88
2022-12-19T10:17:22.622Z,59.58
2022-12-19T10:18:56.442Z,59.71
2022-12-19T10:20:43.169Z,60.28
2022-12-19T10:22:19.262Z,60.27
2022-12-19T10:23:54.445Z,60.24
2022-12-19T10:25:31.205Z,59.62
2022-12-19T10:29:15.110Z,59.71
2022-12-19T10:31:20.650Z,59.23
2022-12-19T10:33:20.144Z,58.93
2022-12-19T10:35:18.217Z,59.14
2022-12-19T10:37:27.690Z,59.19
2022-12-19T10:38:57.577Z,59.34
2022-12-19T10:40:50.759Z,58.93
2022-12-19T10:42:29.849Z,58.47
2022-12-19T10:44:19.510Z,58.59
2022-12-19T10:45:55.225Z,58.13
2022-12-19T10:47:51.513Z,57.98
2022-12-19T10:49:49.604Z,57.65
2022-12-19T10:51:27.878Z,57.47
2022-12-19T10:53:09.287Z,57.51
2022-12-19T10:54:42.014Z,57.22
2022-12-19T10:56:14.376Z,57.00
2022-12-19T10:57:53.598Z,57.38
2022-12-19T10:59:25.759Z,57.41
2022-12-19T11:01:27.761Z,57.50
2022-12-19T11:03:25.291Z,57.56
2022-12-19T11:04:56.960Z,56.93
2022-12-19T11:06:34.713Z,57.02
2022-12-19T11:08:31.429Z,57.04
2022-12-19T11:11:43.505Z,57.09
2022-12-19T11:15:24.876Z,56.59
2022-12-19T11:18:32.136Z,56.35
2022-12-19T11:23:56.133Z,56.36
2022-12-19T11:26:47.491Z,56.52
2022-12-19T11:29:26.152Z,56.47
2022-12-19T11:29:34.803Z,56.48
2022-12-19T11:29:54.650Z,57.32
2022-12-19T11:30:35.541Z,56.38
2022-12-19T11:30:48.000Z,56.97
2022-12-19T11:32:46.193Z,56.82
2022-12-19T11:34:38.185Z,57.43
2022-12-19T11:36:16.960Z,56.98
2022-12-19T11:38:10.021Z,57.14
2022-12-19T11:39:47.565Z,57.30
2022-12-19T11:41:40.037Z,56.98
2022-12-19T11:43:45.500Z,57.37
2022-12-19T11:45:18.479Z,57.24
2022-12-19T11:47:02.189Z,57.05
2022-12-19T11:48:57.928Z,56.94
2022-12-19T11:50:44.610Z,56.75
2022-12-19T11:54:47.563Z,56.98
2022-12-19T11:56:21.071Z,56.45
2022-12-19T11:57:52.785Z,56.31
2022-12-19T11:59:35.058Z,55.77
2022-12-19T12:01:07.076Z,55.73
2022-12-19T12:02:59.661Z,55.43
2022-12-19T12:04:48.981Z,55.35
2022-12-19T12:06:31.453Z,55.32
2022-12-19T12:10:01.017Z,55.14
2022-12-19T12:14:35.528Z,54.87
2022-12-19T12:21:00.182Z,55.27
2022-12-19T12:25:26.771Z,54.88
2022-12-19T12:27:57.930Z,54.85
2022-12-19T12:31:00.481Z,54.99
2022-12-19T12:31:05.842Z,54.61
2022-12-19T12:31:14.692Z,55.35
2022-12-19T12:31:43.660Z,55.58
2022-12-19T12:32:03.364Z,55.48
2022-12-19T12:32:04.346Z,55.47
2022-12-19T12:35:38.187Z,55.12
2022-12-19T12:39:53.882Z,55.42
2022-12-19T12:42:17.907Z,56.18
2022-12-19T12:44:15.408Z,56.17
2022-12-19T12:47:35.530Z,56.01
2022-12-19T12:49:33.734Z,56.01
2022-12-19T12:51:11.360Z,55.94
2022-12-19T12:52:54.062Z,56.07
2022-12-19T12:54:35.528Z,56.11
2022-12-19T12:56:08.081Z,56.12
2022-12-19T12:57:39.983Z,56.26
2022-12-19T12:59:53.349Z,56.22
2022-12-19T13:01:33.914Z,56.06
2022-12-19T13:03:26.319Z,56.11
2022-12-19T13:05:03.841Z,55.52
2022-12-19T13:06:36.954Z,55.97
2022-12-19T13:08:26.988Z,55.79
2022-12-19T13:10:06.678Z,55.44
2022-12-19T13:11:57.010Z,55.64
2022-12-19T13:13:56.479Z,55.30
2022-12-19T13:15:29.942Z,55.65
2022-12-19T13:17:08.139Z,55.80
2022-12-19T13:18:39.773Z,55.75
2022-12-19T13:20:14.579Z,55.76
2022-12-19T13:22:24.649Z,55.29
2022-12-19T13:24:22.257Z,55.92
2022-12-19T13:25:54.042Z,55.39
2022-12-19T13:29:57.011Z,55.21
2022-12-19T13:31:28.822Z,55.28
2022-12-19T13:33:00.466Z,55.48
2022-12-19T13:34:43.989Z,55.42
2022-12-19T13:39:51.849Z,55.49
2022-12-19T13:39:54.912Z,55.91
2022-12-19T13:40:54.284Z,55.95
2022-12-19T13:42:48.089Z,55.67
2022-12-19T13:44:22.507Z,55.87
2022-12-19T13:46:03.675Z,55.47
2022-12-19T13:47:36.867Z,55.77
2022-12-19T13:49:15.832Z,55.56
2022-12-19T13:51:00.808Z,55.45
2022-12-19T13:52:39.029Z,55.51
2022-12-19T13:54:23.335Z,55.74
2022-12-19T13:56:07.222Z,55.83
2022-12-19T13:57:53.400Z,55.53
2022-12-19T13:59:26.788Z,55.44
2022-12-19T14:01:01.557Z,55.51
2022-12-19T14:02:44.697Z,55.07
2022-12-19T14:06:15.171Z,55.43
2022-12-19T14:08:31.170Z,55.56
2022-12-19T14:11:35.381Z,55.61
2022-12-19T14:13:47.186Z,55.52
2022-12-19T14:16:34.854Z,55.51
2022-12-19T14:18:42.672Z,55.76
2022-12-19T14:22:03.849Z,55.50
2022-12-19T14:22:28.541Z,55.45
2022-12-19T14:24:17.174Z,55.54
2022-12-19T14:28:19.657Z,55.44
2022-12-19T14:28:24.714Z,55.53
2022-12-19T14:30:29.165Z,55.61
2022-12-19T14:31:58.385Z,55.66
2022-12-19T14:34:04.321Z,55.40
2022-12-19T14:36:09.593Z,55.87
2022-12-19T14:39:21.131Z,55.73
2022-12-19T14:39:32.780Z,55.65
2022-12-19T14:43:56.344Z,55.88
2022-12-19T14:53:08.348Z,55.94
2022-12-19T14:54:08.506Z,55.95
2022-12-19T14:54:16.120Z,55.89
2022-12-19T14:54:37.408Z,56.19
2022-12-19T14:54:37.410Z,55.87
2022-12-19T14:56:16.946Z,55.65
2022-12-19T14:58:51.320Z,55.87
2022-12-19T14:59:30.502Z,55.91
2022-12-19T15:01:09.608Z,55.92
2022-12-19T15:02:43.316Z,55.69
2022-12-19T15:04:50.555Z,56.04
2022-12-19T15:06:19.820Z,55.70
2022-12-19T15:08:08.837Z,56.04
2022-12-19T15:11:04.818Z,55.80
2022-12-19T15:12:05.895Z,55.99
2022-12-19T15:14:52.405Z,55.81
2022-12-19T15:15:37.860Z,55.51
2022-12-19T15:17:22.839Z,55.62
2022-12-19T15:18:56.824Z,55.56
2022-12-19T15:20:28.583Z,55.61
2022-12-19T15:22:00.676Z,55.59
2022-12-19T15:23:33.176Z,55.79
2022-12-19T15:25:36.114Z,55.59
2022-12-19T15:27:02.669Z,55.51
2022-12-19T15:28:41.124Z,55.70
2022-12-19T15:30:14.365Z,56.14
2022-12-19T15:31:46.048Z,55.82
2022-12-19T15:33:18.878Z,55.61
2022-12-19T15:34:54.673Z,56.13
2022-12-19T15:36:29.380Z,56.25
2022-12-19T15:38:00.940Z,55.62
2022-12-19T15:39:32.535Z,55.69
2022-12-19T15:41:08.817Z,55.59
2022-12-19T15:42:47.884Z,55.71
2022-12-19T15:44:28.156Z,55.70
2022-12-19T15:46:00.250Z,55.84
2022-12-19T15:47:40.268Z,55.65
2022-12-19T15:49:16.220Z,55.58
2022-12-19T15:50:47.828Z,56.07
2022-12-19T15:52:22.194Z,56.22
2022-12-19T15:54:22.097Z,56.26
2022-12-19T15:55:52.251Z,56.40
2022-12-19T15:57:23.963Z,56.33
2022-12-19T15:58:56.612Z,55.63
2022-12-19T16:00:29.435Z,56.40
2022-12-19T16:02:06.449Z,56.16
2022-12-19T16:03:38.617Z,56.24
2022-12-19T16:05:16.489Z,56.16
2022-12-19T16:06:48.406Z,56.24
2022-12-19T16:08:21.301Z,55.99
2022-12-19T16:09:53.157Z,56.08
2022-12-19T16:11:28.556Z,56.27
2022-12-19T16:13:04.521Z,56.13
2022-12-19T16:14:36.066Z,55.82
2022-12-19T16:16:15.487Z,56.23
2022-12-19T16:17:48.137Z,56.06
2022-12-19T16:19:23.165Z,56.37
2022-12-19T16:20:58.714Z,56.07
2022-12-19T16:22:30.243Z,56.09
2022-12-19T16:24:02.214Z,56.60
2022-12-19T16:25:35.711Z,55.99
2022-12-19T16:27:10.320Z,55.89
2022-12-19T16:28:48.184Z,56.32
2022-12-19T16:30:28.050Z,55.93
2022-12-19T16:32:02.369Z,55.99
2022-12-19T16:33:36.707Z,56.29
2022-12-19T16:35:13.477Z,55.75
2022-12-19T16:36:45.111Z,56.38
2022-12-19T16:38:17.003Z,55.98
2022-12-19T16:39:48.599Z,56.02
2022-12-19T16:41:22.589Z,56.26
2022-12-19T16:43:20.068Z,55.98
2022-12-19T16:44:51.745Z,56.50
2022-12-19T16:46:31.200Z,56.39
2022-12-19T16:48:09.534Z,56.31
2022-12-19T16:49:41.246Z,55.74
2022-12-19T16:51:24.438Z,56.39
2022-12-19T16:52:56.496Z,56.32
2022-12-19T16:54:28.190Z,56.30
2022-12-19T16:56:00.018Z,56.19
2022-12-19T16:57:31.708Z,56.31
2022-12-19T16:59:09.735Z,56.30
2022-12-19T17:00:45.001Z,55.53
2022-12-19T17:02:43.558Z,55.89
2022-12-19T17:04:24.590Z,56.24
2022-12-19T17:05:56.305Z,55.55
2022-12-19T17:07:31.133Z,55.60
2022-12-19T17:09:06.469Z,56.25
2022-12-19T17:10:38.358Z,56.08
2022-12-19T17:12:10.202Z,55.84
2022-12-19T17:15:36.877Z,56.26
2022-12-19T17:17:09.606Z,55.86
2022-12-19T17:20:32.908Z,56.02
2022-12-19T17:22:06.798Z,55.83
2022-12-19T17:23:38.409Z,55.77
2022-12-19T17:25:17.541Z,55.55
2022-12-19T17:26:52.153Z,55.52
2022-12-19T17:28:23.755Z,55.42
2022-12-19T17:29:58.680Z,55.53
2022-12-19T17:31:30.508Z,55.78
2022-12-19T17:33:15.203Z,56.24
2022-12-19T17:34:46.977Z,56.02
2022-12-19T17:36:27.646Z,55.84
2022-12-19T17:38:01.746Z,55.35
2022-12-19T17:39:34.274Z,55.62
2022-12-19T17:41:06.628Z,56.04
2022-12-19T17:42:38.696Z,55.56
2022-12-19T17:44:32.745Z,55.53
2022-12-19T17:46:04.544Z,55.63
2022-12-19T17:47:36.167Z,55.67
2022-12-19T17:49:10.490Z,55.69
2022-12-19T17:50:42.081Z,56.09
2022-12-19T17:52:18.282Z,56.01
2022-12-19T17:53:50.246Z,55.92
2022-12-19T17:55:26.288Z,55.65
2022-12-19T17:56:58.038Z,55.87
2022-12-19T17:58:30.176Z,56.20
2022-12-19T18:00:01.824Z,55.93
2022-12-19T18:01:33.556Z,55.68
2022-12-19T18:03:17.198Z,55.76
2022-12-19T18:04:49.241Z,55.85
2022-12-19T18:06:21.336Z,55.49
2022-12-19T18:07:52.957Z,56.17
2022-12-19T18:09:24.641Z,55.63
2022-12-19T18:10:59.434Z,55.69
2022-12-19T18:12:31.199Z,55.68
2022-12-19T18:14:02.767Z,55.85
2022-12-19T18:15:34.459Z,56.07
2022-12-19T18:17:06.142Z,56.11
2022-12-19T18:18:37.890Z,56.13
2022-12-19T18:20:16.461Z,55.95
2022-12-19T18:21:48.122Z,55.81
2022-12-19T18:23:20.810Z,56.11
2022-12-19T18:24:52.491Z,55.98
2022-12-19T18:26:24.143Z,55.94
2022-12-19T18:27:55.843Z,55.76
2022-12-19T18:29:27.557Z,56.12
2022-12-19T18:31:03.316Z,56.14
2022-12-19T18:32:35.048Z,55.84
2022-12-19T18:34:08.301Z,55.88
2022-12-19T18:35:41.127Z,55.36
2022-12-19T18:37:13.595Z,55.33
2022-12-19T18:38:45.315Z,55.44
2022-12-19T18:40:23.286Z,55.34
2022-12-19T18:41:58.243Z,55.79
2022-12-19T18:43:31.303Z,55.25
2022-12-19T18:45:03.085Z,55.83
2022-12-19T18:46:35.094Z,55.37
2022-12-19T18:48:08.089Z,55.63
2022-12-19T18:49:39.928Z,55.74
2022-12-19T18:51:16.741Z,55.72
2022-12-19T18:52:48.929Z,55.91
2022-12-19T18:54:20.975Z,55.80
2022-12-19T18:55:53.053Z,55.70
2022-12-19T18:57:24.638Z,55.15
2022-12-19T18:58:56.210Z,55.77
2022-12-19T19:00:27.921Z,55.64
2022-12-19T19:01:59.672Z,55.25
2022-12-19T19:03:35.687Z,55.48
2022-12-19T19:05:10.212Z,55.56
2022-12-19T19:06:50.033Z,55.47
2022-12-19T19:08:24.092Z,55.48
2022-12-19T19:09:55.755Z,55.72
2022-12-19T19:11:27.914Z,55.68
2022-12-19T19:13:02.682Z,55.73
2022-12-19T19:14:36.994Z,55.23
2022-12-19T19:16:26.540Z,55.49
2022-12-19T19:17:59.215Z,55.62
2022-12-19T19:19:30.892Z,55.93
2022-12-19T19:21:02.370Z,55.74
2022-12-19T19:22:34.688Z,55.20
2022-12-19T19:24:08.187Z,55.80
2022-12-19T19:25:39.794Z,55.71
2022-12-19T19:27:11.807Z,55.19
2022-12-19T19:28:48.567Z,55.64
2022-12-19T19:30:23.539Z,55.58
2022-12-19T19:31:55.175Z,55.63
2022-12-19T19:33:34.532Z,55.58
2022-12-19T19:35:06.684Z,55.46
2022-12-19T19:36:38.560Z,55.36
2022-12-19T19:38:10.133Z,55.29
2022-12-19T19:39:42.246Z,55.48
2022-12-19T19:41:13.848Z,55.54
2022-12-19T19:42:45.607Z,55.72
2022-12-19T19:44:17.517Z,55.62
2022-12-19T19:45:50.325Z,55.45
2022-12-19T19:47:25.487Z,55.14
2022-12-19T19:48:57.344Z,55.45
2022-12-19T19:50:29.655Z,55.77
2022-12-19T19:52:03.129Z,55.84
2022-12-19T19:53:36.215Z,55.10
2022-12-19T19:55:08.201Z,55.70
2022-12-19T19:56:39.776Z,55.88
2022-12-19T19:58:11.338Z,55.66
2022-12-19T19:59:42.861Z,55.70
2022-12-19T20:01:14.628Z,55.47
2022-12-19T20:02:46.659Z,55.65
2022-12-19T20:04:18.842Z,55.27
2022-12-19T20:05:50.546Z,55.17
2022-12-19T20:07:22.104Z,55.47
2022-12-19T20:08:54.085Z,55.25
2022-12-19T20:10:25.625Z,55.48
2022-12-19T20:11:57.365Z,55.42
2022-12-19T20:13:29.478Z,55.89
2022-12-19T20:15:01.093Z,55.80
2022-12-19T20:16:33.637Z,55.41
2022-12-19T20:18:05.251Z,55.51
2022-12-19T20:19:36.776Z,55.38
2022-12-19T20:21:12.766Z,55.93
2022-12-19T20:22:45.568Z,55.71
2022-12-19T20:24:17.358Z,55.69
2022-12-19T20:25:48.900Z,55.81
2022-12-19T20:27:20.505Z,55.47
2022-12-19T20:28:52.183Z,55.29
2022-12-19T20:30:23.824Z,55.86
2022-12-19T20:31:56.488Z,55.50
2022-12-19T20:33:28.086Z,55.38
2022-12-19T20:34:59.684Z,55.35
2022-12-19T20:36:31.374Z,55.56
2022-12-19T20:38:03.423Z,55.30
2022-12-19T20:39:35.035Z,55.58
2022-12-19T20:41:06.618Z,55.75
2022-12-19T20:42:38.089Z,55.39
2022-12-19T20:44:09.914Z,55.56
2022-12-19T20:45:41.507Z,55.32
2022-12-19T20:47:13.442Z,55.48
2022-12-19T20:48:45.567Z,55.91
2022-12-19T20:50:17.287Z,55.95
2022-12-19T20:51:48.960Z,55.87
2022-12-19T20:53:21.009Z,55.74
2022-12-19T20:54:52.677Z,55.81
2022-12-19T20:56:26.197Z,56.06
2022-12-19T20:57:57.958Z,55.79
2022-12-19T20:59:29.771Z,56.08
2022-12-19T21:01:07.979Z,56.02
2022-12-19T21:03:16.755Z,56.14
2022-12-19T21:04:31.621Z,55.91
2022-12-19T21:06:03.597Z,55.94
2022-12-19T21:07:36.642Z,56.06
2022-12-19T21:09:08.309Z,55.94
2022-12-19T21:10:39.910Z,55.92
2022-12-19T21:12:11.985Z,55.98
2022-12-19T21:13:43.727Z,55.95
2022-12-19T21:15:15.706Z,56.15
2022-12-19T21:16:47.500Z,56.18
2022-12-19T21:18:19.351Z,56.01
2022-12-19T21:19:50.884Z,56.12
2022-12-19T21:21:23.435Z,56.21
2022-12-19T21:22:55.160Z,56.07
2022-12-19T21:24:27.156Z,56.15
2022-12-19T21:25:59.303Z,56.18
2022-12-19T21:27:30.885Z,56.12
2022-12-19T21:29:03.175Z,56.24
2022-12-19T21:30:34.720Z,56.23
2022-12-19T21:32:06.214Z,56.33
2022-12-19T21:33:37.841Z,56.20
2022-12-19T21:35:11.191Z,56.28
2022-12-19T21:36:43.110Z,56.27
2022-12-19T21:38:14.702Z,56.31
2022-12-19T21:39:46.391Z,56.25
2022-12-19T21:41:21.535Z,56.26
2022-12-19T21:42:53.244Z,56.39
2022-12-19T21:44:24.747Z,56.37
2022-12-19T21:46:09.161Z,56.34
2022-12-19T21:47:42.307Z,56.38
2022-12-19T21:49:14.024Z,56.38
2022-12-19T21:50:45.657Z,56.49
2022-12-19T21:52:17.377Z,56.45
2022-12-19T21:53:49.053Z,56.53
2022-12-19T21:55:20.573Z,56.01
2022-12-19T21:56:52.132Z,56.41
2022-12-19T21:58:23.698Z,56.59
2022-12-19T21:59:55.320Z,56.52